Time;durP1;ratioP1;P1;durP2;ratioP2;P2;SDS_P1;SDS_P2;PMS_P1;PMS_P2;Temp;Humidity;BMP_temperature;BMP_pressure;BME280_temperature;BME280_humidity;BME280_pressure;Samples;Min_cycle;Max_cycle;Signal;HPM_P1;HPM_P2
2022/03/28 00:06:51;;;;;;;20.95;10.95;;;;;;;8.96;86.09;101347.41;20861589;28;20407;-69
2022/03/28 00:16:55;;;;;;;17.58;10.82;;;;;;;8.83;87.52;101342.94;20860508;28;20054;-70
2022/03/28 00:26:56;;;;;;;20.65;12.27;;;;;;;8.67;87.73;101334.13;20861580;28;20061;-69
2022/03/28 00:36:57;;;;;;;19.50;11.77;;;;;;;8.46;88.49;101329.63;20860761;28;20060;-68
2022/03/28 00:46:59;;;;;;;18.30;11.65;;;;;;;8.25;89.03;101319.00;20860273;28;20413;-67
2022/03/28 00:57:02;;;;;;;17.95;10.38;;;;;;;8.13;88.33;101307.56;20859062;28;20045;-67
2022/03/28 01:07:05;;;;;;;19.75;11.70;;;;;;;8.06;89.92;101308.38;20857055;28;20049;-69
2022/03/28 01:27:28;;;;;;;24.52;12.02;;;;;;;7.81;91.00;101288.13;20857154;28;20045;-67
2022/03/28 01:37:29;;;;;;;21.45;13.25;;;;;;;7.67;93.04;101293.22;20855583;28;20045;-68
2022/03/28 01:47:31;;;;;;;23.92;12.60;;;;;;;7.53;94.72;101292.22;20856021;28;20091;-69
2022/03/28 01:57:33;;;;;;;21.60;12.77;;;;;;;7.42;94.45;101274.69;20856548;28;20107;-67
2022/03/28 02:07:35;;;;;;;22.60;13.73;;;;;;;7.31;95.56;101273.72;20856706;28;20779;-68
2022/03/28 02:17:38;;;;;;;19.25;12.23;;;;;;;7.01;94.64;101276.81;20860859;28;20072;-67
2022/03/28 02:27:39;;;;;;;22.15;12.60;;;;;;;6.81;93.54;101276.56;20870582;28;20069;-67
2022/03/28 02:37:41;;;;;;;22.60;13.57;;;;;;;6.71;94.62;101277.31;20868228;28;20049;-66
2022/03/28 02:47:42;;;;;;;26.10;14.02;;;;;;;6.59;94.71;101264.09;20868474;28;20499;-68
2022/03/28 02:57:44;;;;;;;25.58;13.95;;;;;;;6.45;97.98;101258.69;20867727;28;20046;-67
2022/03/28 03:07:49;;;;;;;28.13;14.70;;;;;;;6.32;99.32;101260.22;20867824;28;20049;-67
2022/03/28 03:17:51;;;;;;;;;;;;;;;6.16;99.96;101253.03;20869659;28;20055;-67
2022/03/28 03:27:52;;;;;;;23.90;13.82;;;;;;;6.01;99.62;101252.81;20867213;28;19924;-67
2022/03/28 03:37:54;;;;;;;26.13;14.80;;;;;;;5.85;100.00;101244.72;20863656;28;20145;-65
2022/03/28 03:47:55;;;;;;;23.10;13.45;;;;;;;5.71;100.00;101238.41;20863332;28;20049;-65
2022/03/28 03:57:57;;;;;;;27.33;14.57;;;;;;;5.60;99.89;101245.13;20862935;28;20076;-65
2022/03/28 04:08:02;;;;;;;25.70;15.18;;;;;;;5.49;100.00;101246.66;20861547;28;20526;-65
2022/03/28 04:18:04;;;;;;;28.02;15.27;;;;;;;5.37;100.00;101258.56;20860866;28;20431;-65
2022/03/28 04:28:06;;;;;;;31.35;17.02;;;;;;;5.18;100.00;101251.28;20860230;28;20470;-65
2022/03/28 04:38:09;;;;;;;29.15;15.70;;;;;;;5.04;100.00;101252.72;20858970;28;20458;-64
2022/03/28 04:48:11;;;;;;;26.27;15.05;;;;;;;4.97;100.00;101258.59;20919689;23;20502;-67
2022/03/28 04:58:13;;;;;;;28.02;16.10;;;;;;;4.78;100.00;101260.81;21025731;28;20052;-67
2022/03/28 05:08:14;;;;;;;26.58;15.52;;;;;;;4.68;100.00;101268.34;21025098;28;20390;-65
2022/03/28 05:18:16;;;;;;;26.30;14.25;;;;;;;4.54;100.00;101260.25;21023924;28;20084;-66
2022/03/28 05:28:17;;;;;;;24.80;13.70;;;;;;;4.55;100.00;101262.91;21023047;28;20052;-65
2022/03/28 05:38:19;;;;;;;24.92;13.90;;;;;;;4.58;100.00;101259.50;21022342;28;20072;-65
2022/03/28 05:48:21;;;;;;;30.02;14.25;;;;;;;4.72;100.00;101252.91;21013416;28;20048;-65
2022/03/28 05:58:22;;;;;;;27.05;13.73;;;;;;;4.81;100.00;101250.50;21024540;28;20048;-64
2022/03/28 06:08:24;;;;;;;24.60;14.48;;;;;;;5.09;100.00;101261.47;21023783;28;20051;-64
2022/03/28 06:18:26;;;;;;;29.13;15.20;;;;;;;5.42;100.00;101270.78;21017935;28;20063;-64
2022/03/28 06:28:27;;;;;;;27.42;15.75;;;;;;;5.75;100.00;101261.00;21012009;28;20056;-64
2022/03/28 06:38:29;;;;;;;31.70;15.63;;;;;;;6.05;99.95;101262.41;21020090;28;20497;-65
2022/03/28 06:48:31;;;;;;;30.05;16.05;;;;;;;6.42;99.42;101272.53;21023311;28;20048;-65
2022/03/28 06:58:34;;;;;;;27.75;15.55;;;;;;;6.75;98.43;101259.97;21022916;28;20139;-65
2022/03/28 07:08:36;;;;;;;30.67;15.15;;;;;;;7.17;98.19;101247.50;21018399;28;20057;-65
2022/03/28 07:18:39;;;;;;;29.63;16.10;;;;;;;7.61;93.85;101241.03;21026564;28;20078;-65
2022/03/28 07:28:40;;;;;;;33.17;16.70;;;;;;;8.00;91.74;101248.34;21026807;28;20567;-65
2022/03/28 07:38:42;;;;;;;24.90;14.68;;;;;;;8.43;88.60;101231.31;21019901;28;20165;-64
2022/03/28 07:48:44;;;;;;;24.85;14.90;;;;;;;8.76;87.55;101224.50;21024255;28;20068;-64
2022/03/28 07:58:46;;;;;;;29.13;16.38;;;;;;;9.17;87.25;101216.84;21023335;28;20555;-65
2022/03/28 08:08:48;;;;;;;29.55;17.05;;;;;;;9.58;86.72;101216.09;21021524;28;20041;-65
2022/03/28 08:18:49;;;;;;;27.40;15.95;;;;;;;9.97;84.62;101190.81;21017099;28;20043;-64
2022/03/28 08:28:51;;;;;;;25.83;15.20;;;;;;;10.35;84.08;101185.56;21018608;28;20052;-64
2022/03/28 08:38:53;;;;;;;22.45;14.80;;;;;;;10.78;80.88;101177.59;21017599;28;20041;-64
2022/03/28 08:48:57;;;;;;;26.05;15.18;;;;;;;11.29;79.57;101159.81;21018437;28;20075;-65
2022/03/28 08:58:58;;;;;;;23.55;15.43;;;;;;;11.82;77.42;101171.69;21016963;28;20413;-64
2022/03/28 09:09:09;;;;;;;24.58;15.00;;;;;;;12.33;76.72;101156.34;21019268;28;20059;-66
2022/03/28 09:19:12;;;;;;;23.52;14.07;;;;;;;12.90;74.65;101139.91;21018369;28;20052;-65
2022/03/28 09:29:13;;;;;;;23.85;13.93;;;;;;;13.16;69.55;101127.25;21031536;28;20044;-65
2022/03/28 09:39:20;;;;;;;22.08;13.80;;;;;;;13.46;67.22;101109.28;21038956;28;20135;-65
2022/03/28 09:49:25;;;;;;;21.15;13.18;;;;;;;13.86;63.43;101088.41;21042903;28;20056;-65
2022/03/28 09:59:35;;;;;;;;;;;;;;;14.35;58.84;101075.16;21043015;28;20478;-64
2022/03/28 10:09:37;;;;;;;23.30;12.50;;;;;;;14.85;53.46;101053.91;21041684;28;19927;-66
2022/03/28 10:19:38;;;;;;;23.73;13.45;;;;;;;15.22;50.69;101037.22;21042884;28;20409;-65
2022/03/28 10:30:09;;;;;;;22.60;11.15;;;;;;;15.95;45.95;101022.09;21041176;28;20044;-65
2022/03/28 10:40:11;;;;;;;24.05;11.38;;;;;;;16.13;45.46;101011.03;21031749;28;20056;-66
2022/03/28 10:50:18;;;;;;;21.02;10.82;;;;;;;16.55;45.24;100986.88;21004374;22;20051;-73
2022/03/28 11:00:19;;;;;;;20.40;10.70;;;;;;;16.92;43.56;100969.88;20939859;28;20064;-71
2022/03/28 11:10:23;;;;;;;20.38;10.70;;;;;;;17.38;42.25;100960.38;20942608;28;20080;-70
2022/03/28 11:20:27;;;;;;;27.07;10.93;;;;;;;17.32;41.80;100947.34;20944485;28;20421;-69
2022/03/28 11:30:29;;;;;;;21.47;10.13;;;;;;;17.51;38.11;100921.09;20940085;28;20040;-71
2022/03/28 11:40:41;;;;;;;22.40;11.38;;;;;;;17.57;38.52;100900.53;20940061;28;20048;-70
2022/03/28 11:50:42;;;;;;;25.98;13.00;;;;;;;17.87;37.87;100882.69;20938147;28;20049;-71
2022/03/28 12:00:47;;;;;;;22.40;11.55;;;;;;;17.95;37.42;100854.09;20941707;28;20399;-70
2022/03/28 12:10:51;;;;;;;19.80;10.18;;;;;;;18.29;34.82;100836.00;20936733;28;20049;-70
2022/03/28 12:20:54;;;;;;;18.70;9.10;;;;;;;18.55;30.66;100814.59;20931207;28;20056;-73
2022/03/28 12:30:57;;;;;;;18.58;9.60;;;;;;;18.60;32.72;100796.69;20933341;28;20279;-70
2022/03/28 12:41:05;;;;;;;15.55;8.82;;;;;;;18.61;29.19;100769.22;20936081;28;20118;-71
2022/03/28 12:51:08;;;;;;;22.63;10.85;;;;;;;18.83;28.46;100744.44;20934618;28;20052;-71
2022/03/28 13:01:10;;;;;;;21.55;11.15;;;;;;;18.96;31.69;100724.38;20933809;28;20053;-71
2022/03/28 13:11:18;;;;;;;22.98;9.80;;;;;;;19.06;31.54;100707.09;20934648;28;20055;-71
2022/03/28 13:21:19;;;;;;;24.38;12.07;;;;;;;18.92;31.82;100686.53;20929150;28;20063;-71
2022/03/28 13:31:22;;;;;;;15.88;8.65;;;;;;;19.28;26.82;100668.97;20935701;28;20395;-71
2022/03/28 13:41:23;;;;;;;15.70;8.10;;;;;;;19.14;26.84;100656.34;20937219;28;20053;-71
2022/03/28 13:51:28;;;;;;;19.70;9.43;;;;;;;19.49;28.21;100638.69;20941393;28;20049;-72
2022/03/28 14:01:30;;;;;;;14.75;8.57;;;;;;;19.84;27.46;100614.88;20933396;28;20060;-73
2022/03/28 14:11:34;;;;;;;20.63;10.77;;;;;;;19.78;27.36;100596.56;20934191;28;20135;-71
2022/03/28 14:21:36;;;;;;;16.42;9.68;;;;;;;19.76;25.89;100590.50;20947096;28;20083;-71
2022/03/28 14:31:38;;;;;;;14.10;8.57;;;;;;;19.66;25.51;100579.47;20944399;28;20049;-71
2022/03/28 14:41:41;;;;;;;13.90;8.10;;;;;;;19.88;25.68;100572.13;20943866;28;20057;-71
2022/03/28 14:51:43;;;;;;;14.82;7.45;;;;;;;20.16;26.63;100552.06;20944184;28;20049;-71
2022/03/28 15:01:45;;;;;;;14.43;8.32;;;;;;;20.29;26.31;100544.31;20938842;28;20052;-71
2022/03/28 15:11:46;;;;;;;15.07;9.00;;;;;;;20.35;26.36;100510.25;20939739;28;20047;-71
2022/03/28 15:21:48;;;;;;;15.43;8.20;;;;;;;20.09;27.12;100514.34;20938031;28;20128;-71
2022/03/28 15:31:51;;;;;;;19.90;8.45;;;;;;;20.25;27.41;100504.56;20941387;28;20053;-71
2022/03/28 15:41:54;;;;;;;15.80;8.05;;;;;;;20.18;26.72;100487.25;20940837;28;20500;-71
2022/03/28 15:51:55;;;;;;;15.45;7.03;;;;;;;20.02;23.91;100485.47;20938824;28;20049;-72
2022/03/28 16:01:57;;;;;;;12.13;6.75;;;;;;;19.73;22.29;100478.13;20935358;28;20055;-72
2022/03/28 16:12:02;;;;;;;12.48;6.43;;;;;;;19.70;21.95;100475.63;20910001;28;20049;-71
2022/03/28 16:22:03;;;;;;;10.43;5.50;;;;;;;19.67;21.90;100470.47;20884998;28;21702;-71
2022/03/28 16:32:06;;;;;;;10.45;5.90;;;;;;;19.30;23.02;100454.69;20882210;28;20071;-71
2022/03/28 16:42:08;;;;;;;14.35;6.65;;;;;;;19.28;23.64;100444.16;20879048;28;20049;-71
2022/03/28 16:52:11;;;;;;;11.60;6.05;;;;;;;18.80;24.52;100439.50;20913844;22;20281;-67
2022/03/28 17:02:13;;;;;;;12.63;6.45;;;;;;;18.65;25.06;100431.34;20710163;28;20045;-66
2022/03/28 17:12:17;;;;;;;13.25;6.20;;;;;;;18.34;26.06;100420.47;20705228;28;20058;-65
2022/03/28 17:22:19;;;;;;;11.13;6.27;;;;;;;18.04;26.20;100413.03;20707789;28;20053;-66
2022/03/28 17:32:22;;;;;;;11.07;6.30;;;;;;;17.80;26.54;100412.38;20705616;28;20527;-66
2022/03/28 17:42:23;;;;;;;12.75;6.50;;;;;;;17.33;27.24;100403.84;20715502;28;20427;-65
2022/03/28 17:52:25;;;;;;;11.55;6.22;;;;;;;17.02;28.50;100404.31;20716795;28;20041;-66
2022/03/28 18:02:27;;;;;;;12.20;6.70;;;;;;;16.61;28.79;100401.56;20721608;28;20061;-65
2022/03/28 18:12:29;;;;;;;10.90;5.88;;;;;;;16.10;30.35;100403.56;20705634;28;20053;-65
2022/03/28 18:22:30;;;;;;;12.60;6.03;;;;;;;15.56;32.42;100406.44;20719182;28;20506;-66
2022/03/28 18:32:32;;;;;;;11.50;6.22;;;;;;;15.13;33.70;100407.94;20720489;28;20042;-65
2022/03/28 18:42:39;;;;;;;12.73;6.57;;;;;;;14.69;35.18;100412.06;20718342;28;20065;-66
2022/03/28 18:52:41;;;;;;;10.55;6.10;;;;;;;14.23;36.22;100413.47;20717091;28;20041;-66
2022/03/28 19:02:43;;;;;;;9.75;5.10;;;;;;;13.89;37.16;100416.25;20716865;28;20050;-66
2022/03/28 19:12:46;;;;;;;10.45;5.70;;;;;;;13.58;37.97;100415.38;20714868;28;20052;-63
2022/03/28 19:22:47;;;;;;;10.57;5.78;;;;;;;13.34;38.95;100413.41;20719194;28;20053;-64
2022/03/28 19:32:49;;;;;;;13.98;7.05;;;;;;;13.12;40.42;100404.31;20698123;28;20043;-64
2022/03/28 19:42:50;;;;;;;11.98;6.95;;;;;;;12.84;41.27;100397.16;20693145;28;20073;-64
2022/03/28 19:52:53;;;;;;;12.65;7.60;;;;;;;12.66;42.35;100392.34;20692164;28;20527;-64
2022/03/28 20:02:55;;;;;;;13.50;8.15;;;;;;;12.59;42.50;100379.34;20650942;28;20046;-64
2022/03/28 20:12:56;;;;;;;12.68;7.70;;;;;;;12.44;42.11;100379.72;20678216;28;20480;-68
2022/03/28 20:22:58;;;;;;;18.92;7.40;;;;;;;12.10;44.72;100384.88;20690734;28;20050;-67
2022/03/28 20:33:00;;;;;;;10.95;6.60;;;;;;;11.76;46.36;100369.84;20649003;28;20054;-67
2022/03/28 20:43:01;;;;;;;14.70;6.32;;;;;;;11.57;47.99;100369.34;20673587;28;20120;-68
2022/03/28 20:53:03;;;;;;;14.80;8.07;;;;;;;11.39;48.38;100359.22;20688547;28;20054;-68
2022/03/28 21:03:04;;;;;;;15.88;8.18;;;;;;;11.28;48.39;100346.34;20686269;28;20127;-68
2022/03/28 21:13:06;;;;;;;13.50;7.57;;;;;;;11.08;49.12;100347.63;20688940;28;20044;-67
2022/03/28 21:23:08;;;;;;;12.35;7.05;;;;;;;10.85;48.71;100335.78;20685186;28;20053;-69
2022/03/28 21:33:10;;;;;;;14.63;7.53;;;;;;;10.63;49.47;100330.06;20686775;28;20053;-69
2022/03/28 21:43:12;;;;;;;13.65;7.22;;;;;;;10.48;51.02;100325.94;20686049;28;20050;-69
2022/03/28 21:53:14;;;;;;;13.10;7.13;;;;;;;10.34;52.01;100317.44;20684978;28;20050;-68
2022/03/28 22:03:20;;;;;;;13.68;7.65;;;;;;;10.21;53.02;100311.53;20687439;28;20503;-69
2022/03/28 22:13:22;;;;;;;12.57;6.90;;;;;;;10.09;54.14;100308.22;20693136;28;20392;-69
2022/03/28 22:23:24;;;;;;;16.60;7.88;;;;;;;9.95;53.83;100308.44;20693789;28;20396;-70
2022/03/28 22:33:25;;;;;;;13.80;7.95;;;;;;;9.85;53.88;100293.78;20695422;28;20049;-70
2022/03/28 22:43:27;;;;;;;15.23;8.20;;;;;;;9.69;54.17;100287.91;20706499;28;20054;-69
2022/03/28 22:53:28;;;;;;;14.65;8.32;;;;;;;9.54;54.71;100280.28;20705294;28;20105;-69
2022/03/28 23:03:30;;;;;;;13.40;8.05;;;;;;;9.37;55.04;100277.88;20703723;28;20050;-69
2022/03/28 23:13:32;;;;;;;12.73;7.80;;;;;;;9.23;57.29;100270.19;20703694;28;20480;-69
2022/03/28 23:23:33;;;;;;;14.82;7.80;;;;;;;9.18;58.17;100272.00;20702767;28;20597;-69
2022/03/28 23:33:35;;;;;;;17.83;8.75;;;;;;;9.17;56.79;100254.59;20701885;28;20050;-68
2022/03/28 23:43:37;;;;;;;14.25;8.40;;;;;;;9.02;58.66;100265.25;20660857;28;20051;-68
2022/03/28 23:53:38;;;;;;;17.27;9.02;;;;;;;8.74;59.17;100260.31;20686641;28;20053;-68
